createdAt,value
2023-04-12T00:00:50.891Z,7.1
2023-04-12T00:06:43.730Z,7.1
2023-04-12T00:12:34.740Z,7.1
2023-04-12T00:18:11.890Z,7.1
2023-04-12T00:24:03.318Z,7.1
2023-04-12T00:29:53.938Z,7.1
2023-04-12T00:35:46.073Z,7.1
2023-04-12T00:41:22.333Z,7.2
2023-04-12T00:46:58.154Z,7.3
2023-04-12T00:52:34.469Z,7.3
2023-04-12T00:58:10.489Z,7.3
2023-04-12T01:03:47.548Z,7.3
2023-04-12T01:09:39.585Z,7.3
2023-04-12T01:15:30.744Z,7.3
2023-04-12T01:21:06.657Z,7.2
2023-04-12T01:26:58.117Z,7.1
2023-04-12T01:32:02.676Z,7.1
2023-04-12T01:37:39.161Z,7.1
2023-04-12T01:43:15.447Z,7.1
2023-04-12T01:48:50.990Z,7.1
2023-04-12T01:54:27.477Z,7
2023-04-12T02:00:05.605Z,6.9
2023-04-12T02:05:43.856Z,6.8
2023-04-12T02:11:20.012Z,6.6
2023-04-12T02:16:56.674Z,6.6
2023-04-12T02:22:32.029Z,6.6
2023-04-12T02:28:07.458Z,6.6
2023-04-12T02:33:12.780Z,6.7
2023-04-12T02:38:48.672Z,6.8
2023-04-12T02:44:09.814Z,6.7
2023-04-12T02:49:31.468Z,6.7
2023-04-12T02:55:07.945Z,6.6
2023-04-12T03:00:44.114Z,6.8
2023-04-12T03:06:22.412Z,6.8
2023-04-12T03:11:57.863Z,6.8
2023-04-12T03:17:34.645Z,6.9
2023-04-12T03:23:11.198Z,6.9
2023-04-12T03:28:46.892Z,7
2023-04-12T03:34:22.668Z,7.1
2023-04-12T03:39:59.344Z,7.2
2023-04-12T03:45:38.261Z,7.2
2023-04-12T03:51:26.761Z,7.3
2023-04-12T03:57:03.949Z,7.3
2023-04-12T04:02:40.526Z,7.3
2023-04-12T04:08:19.160Z,7.3
2023-04-12T04:13:55.688Z,7.3
2023-04-12T04:19:32.204Z,7.3
2023-04-12T04:24:52.529Z,7.4
2023-04-12T04:30:28.479Z,7.4
2023-04-12T04:36:05.034Z,7.4
2023-04-12T04:41:40.712Z,7.4
2023-04-12T04:47:17.067Z,7.5
2023-04-12T04:52:52.892Z,7.5
2023-04-12T04:58:32.163Z,7.6
2023-04-12T05:04:11.100Z,7.7
2023-04-12T05:10:02.936Z,7.8
2023-04-12T05:16:00.800Z,7.9
2023-04-12T05:21:37.393Z,8.2
2023-04-12T05:27:13.314Z,8.5
2023-04-12T05:32:48.840Z,8.9
2023-04-12T05:38:24.599Z,9.3
2023-04-12T05:44:00.407Z,9.6
2023-04-12T05:49:37.493Z,9.8
2023-04-12T05:55:22.578Z,9.9
2023-04-12T06:00:59.290Z,10.1
2023-04-12T06:06:52.381Z,10.3
2023-04-12T06:12:28.161Z,10.6
2023-04-12T06:18:04.071Z,10.8
2023-04-12T06:23:40.125Z,11.1
2023-04-12T06:29:16.505Z,11.3
2023-04-12T06:34:52.724Z,11.8
2023-04-12T06:40:29.282Z,12.3
2023-04-12T06:46:05.364Z,13.1
2023-04-12T06:51:42.069Z,13.9
2023-04-12T06:57:03.466Z,14.4
2023-04-12T07:02:26.099Z,15.5
2023-04-12T07:13:28.374Z,29
2023-04-12T07:19:05.875Z,36.3
2023-04-12T07:24:25.950Z,38.8
2023-04-12T07:30:02.311Z,41.3
2023-04-12T07:35:55.518Z,42.8
2023-04-12T07:41:33.115Z,44.1
2023-04-12T07:46:58.021Z,36.8
2023-04-12T07:52:34.909Z,38.7
2023-04-12T07:58:13.339Z,41.6
2023-04-12T08:03:53.392Z,44
2023-04-12T08:09:30.820Z,35.3
2023-04-12T08:15:06.827Z,34.3
2023-04-12T08:20:43.628Z,41.9
2023-04-12T08:26:20.545Z,49.3
2023-04-12T08:31:56.616Z,43.2
2023-04-12T08:37:50.555Z,42.6
2023-04-12T08:43:57.952Z,44
2023-04-12T08:49:49.106Z,44.9
2023-04-12T08:55:41.097Z,46.3
2023-04-12T09:01:33.783Z,47.4
2023-04-12T09:07:29.284Z,48.4
2023-04-12T09:12:51.675Z,48.1
2023-04-12T09:18:45.556Z,48.4
2023-04-12T09:24:20.989Z,49.8
2023-04-12T09:30:12.908Z,51.4
2023-04-12T09:36:05.893Z,52.5
2023-04-12T09:41:44.841Z,53.7
2023-04-12T09:47:52.766Z,54.4
2023-04-12T09:53:45.176Z,55
2023-04-12T09:59:37.519Z,55.3
2023-04-12T10:05:34.731Z,55.9
2023-04-12T10:11:29.339Z,56.5
2023-04-12T10:17:08.346Z,56.9
2023-04-12T10:23:03.857Z,57.6
2023-04-12T10:28:56.321Z,57.8
2023-04-12T10:34:48.439Z,57.6
2023-04-12T10:40:41.151Z,57.9
2023-04-12T10:46:32.885Z,58.3
2023-04-12T10:52:24.404Z,58.1
2023-04-12T10:58:17.286Z,58.4
2023-04-12T11:04:04.916Z,58.6
2023-04-12T11:10:09.454Z,58.2
2023-04-12T11:16:01.589Z,58.1
2023-04-12T11:21:54.977Z,58.1
2023-04-12T11:27:31.378Z,58.1
2023-04-12T11:33:36.312Z,58.1
2023-04-12T11:39:30.001Z,58
2023-04-12T11:45:35.589Z,54.3
2023-04-12T11:51:41.511Z,57.6
2023-04-12T11:57:18.181Z,63.8
2023-04-12T12:03:26.929Z,57.3
2023-04-12T12:09:23.612Z,54.9
2023-04-12T12:15:38.591Z,55.3
2023-04-12T12:21:30.726Z,57.5
2023-04-12T12:27:38.280Z,59.9
2023-04-12T12:33:43.138Z,62.4
2023-04-12T12:39:45.009Z,53.1
2023-04-12T12:45:37.061Z,53.6
2023-04-12T12:51:53.827Z,55.2
2023-04-12T12:57:55.415Z,56.4
2023-04-12T13:03:57.906Z,56.7
2023-04-12T13:09:51.252Z,56.6
2023-04-12T13:15:55.988Z,55.9
2023-04-12T13:21:49.498Z,54.9
2023-04-12T13:27:42.576Z,54.1
2023-04-12T13:33:21.802Z,53.3
2023-04-12T13:39:15.345Z,52.1
2023-04-12T13:45:08.474Z,50.9
2023-04-12T13:51:01.838Z,49.6
2023-04-12T13:56:53.971Z,48.3
2023-04-12T14:02:48.956Z,46.8
2023-04-12T14:08:41.394Z,45.3
2023-04-12T14:14:34.239Z,43.9
2023-04-12T14:20:11.795Z,42.1
2023-04-12T14:26:03.568Z,40.5
2023-04-12T14:31:55.889Z,39.1
2023-04-12T14:37:49.989Z,37.1
2023-04-12T14:43:42.570Z,35.4
2023-04-12T14:49:36.078Z,33.9
2023-04-12T14:55:28.476Z,32.6
2023-04-12T15:01:27.456Z,31.3
2023-04-12T15:07:22.814Z,29.4
2023-04-12T15:13:14.726Z,28
2023-04-12T15:19:15.900Z,26.6
2023-04-12T15:25:10.964Z,25.2
2023-04-12T15:31:03.674Z,23.9
2023-04-12T15:36:40.909Z,22.7
2023-04-12T15:42:36.401Z,21.5
2023-04-12T15:48:39.457Z,20.5
2023-04-12T15:54:30.259Z,19.5
2023-04-12T16:00:24.190Z,18.6
2023-04-12T16:06:19.455Z,17.9
2023-04-12T16:11:54.850Z,17.2
2023-04-12T16:17:46.626Z,16.6
2023-04-12T16:23:23.493Z,16.1
2023-04-12T16:29:15.036Z,15.6
2023-04-12T16:35:09.507Z,15
2023-04-12T16:40:46.453Z,14.4
2023-04-12T16:46:37.991Z,13.9
2023-04-12T16:52:32.823Z,13.3
2023-04-12T16:58:24.925Z,12.8
2023-04-12T17:04:17.364Z,12.4
2023-04-12T17:10:09.835Z,11.9
2023-04-12T17:16:02.067Z,11.4
2023-04-12T17:21:55.223Z,11.1
2023-04-12T17:27:48.548Z,10.8
2023-04-12T17:33:41.153Z,10.4
2023-04-12T17:39:20.176Z,10.1
2023-04-12T17:45:12.568Z,9.8
2023-04-12T17:51:05.193Z,9.5
2023-04-12T17:56:56.469Z,9.3
2023-04-12T18:02:49.709Z,8.9
2023-04-12T18:08:43.038Z,8.8
2023-04-12T18:14:34.799Z,8.6
2023-04-12T18:20:27.774Z,8.4
2023-04-12T18:26:21.861Z,8.3
2023-04-12T18:32:13.733Z,8.1
2023-04-12T18:38:06.289Z,7.9
2023-04-12T18:43:58.477Z,7.6
2023-04-12T18:49:50.235Z,7.4
2023-04-12T18:55:29.130Z,7.3
2023-04-12T19:01:42.659Z,7.1
2023-04-12T19:07:36.727Z,7.1
2023-04-12T19:13:30.295Z,7
2023-04-12T19:19:23.287Z,7
2023-04-12T19:25:18.292Z,7
2023-04-12T19:31:12.685Z,6.9
2023-04-12T19:37:09.433Z,6.9
2023-04-12T19:43:04.672Z,6.8
2023-04-12T19:48:58.571Z,6.8
2023-04-12T19:54:52.599Z,6.7
2023-04-12T20:00:44.931Z,6.6
2023-04-12T20:06:39.193Z,6.4
2023-04-12T20:12:32.190Z,6.4
2023-04-12T20:18:09.786Z,6.3
2023-04-12T20:24:02.448Z,6.2
2023-04-12T20:29:54.724Z,6.1
2023-04-12T20:35:46.637Z,6.1
2023-04-12T20:41:38.757Z,6.1
2023-04-12T20:47:32.355Z,6.1
2023-04-12T20:53:24.936Z,6.1
2023-04-12T20:59:19.221Z,6.1
2023-04-12T21:06:50.658Z,6
2023-04-12T21:12:26.344Z,5.8
2023-04-12T21:18:18.214Z,5.6
2023-04-12T21:24:08.903Z,5.4
2023-04-12T21:30:00.271Z,5.3
2023-04-12T21:35:52.193Z,5.1
2023-04-12T21:41:43.586Z,4.8
2023-04-12T21:47:35.288Z,4.6
2023-04-12T21:53:30.577Z,4.4
2023-04-12T21:59:24.546Z,4.2
2023-04-12T22:05:01.737Z,4
2023-04-12T22:10:50.590Z,3.8
2023-04-12T22:16:42.289Z,3.8
2023-04-12T22:22:18.322Z,3.7
2023-04-12T22:27:55.178Z,3.6
2023-04-12T22:33:31.877Z,3.5
2023-04-12T22:39:37.458Z,3.4
2023-04-12T22:45:28.965Z,3.3
2023-04-12T22:51:20.734Z,3.4
2023-04-12T22:57:12.016Z,3.4
2023-04-12T23:03:08.028Z,3.3
2023-04-12T23:08:59.207Z,3.2
2023-04-12T23:14:34.869Z,3.1
2023-04-12T23:20:26.968Z,3.1
2023-04-12T23:26:18.647Z,2.9
2023-04-12T23:31:55.490Z,2.7
2023-04-12T23:37:31.456Z,2.5
2023-04-12T23:43:22.419Z,2.3
2023-04-12T23:49:13.716Z,1.9
2023-04-12T23:55:05.754Z,1.7
